createdAt,value
2019-04-11T00:02:10.554Z,4.57
2019-04-11T00:04:42.039Z,4.40
2019-04-11T00:07:14.236Z,4.20
2019-04-11T00:09:45.210Z,4.37
2019-04-11T00:12:16.616Z,4.10
2019-04-11T00:14:48.388Z,4.17
2019-04-11T00:17:19.573Z,4.40
2019-04-11T00:19:51.553Z,4.10
2019-04-11T00:22:25.454Z,4.83
2019-04-11T00:24:56.480Z,4.27
2019-04-11T00:27:28.856Z,5.00
2019-04-11T00:29:59.761Z,4.63
2019-04-11T00:32:32.075Z,4.50
2019-04-11T00:35:03.695Z,4.03
2019-04-11T00:37:36.838Z,4.67
2019-04-11T00:40:09.004Z,4.43
2019-04-11T00:42:40.853Z,4.47
2019-04-11T00:45:13.599Z,3.77
2019-04-11T00:47:45.629Z,4.57
2019-04-11T00:50:16.412Z,4.67
2019-04-11T00:52:51.666Z,4.40
2019-04-11T00:55:23.731Z,4.53
2019-04-11T00:57:57.416Z,4.30
2019-04-11T01:00:29.170Z,5.03
2019-04-11T01:03:00.132Z,4.47
2019-04-11T01:05:31.788Z,4.80
2019-04-11T01:08:03.134Z,4.93
2019-04-11T01:10:34.561Z,4.93
2019-04-11T01:13:08.920Z,4.47
2019-04-11T01:15:45.486Z,4.33
2019-04-11T01:18:18.038Z,3.93
2019-04-11T01:20:49.886Z,4.30
2019-04-11T01:23:20.778Z,4.80
2019-04-11T01:25:52.744Z,4.40
2019-04-11T01:28:24.783Z,4.40
2019-04-11T01:31:06.510Z,4.67
2019-04-11T01:33:37.987Z,4.40
2019-04-11T01:36:12.669Z,4.77
2019-04-11T01:38:51.208Z,4.50
2019-04-11T01:41:24.649Z,4.77
2019-04-11T01:44:00.762Z,3.80
2019-04-11T01:46:31.976Z,3.70
2019-04-11T01:49:10.196Z,4.67
2019-04-11T01:51:42.156Z,4.73
2019-04-11T01:54:17.500Z,4.23
2019-04-11T01:56:49.455Z,4.57
2019-04-11T01:59:21.508Z,4.30
2019-04-11T02:02:21.230Z,3.83
2019-04-11T02:05:05.039Z,4.60
2019-04-11T02:07:36.552Z,4.50
2019-04-11T02:10:08.550Z,4.70
2019-04-11T02:12:39.556Z,4.53
2019-04-11T02:15:12.321Z,4.20
2019-04-11T02:17:43.347Z,4.37
2019-04-11T02:20:22.995Z,4.50
2019-04-11T02:23:15.326Z,3.87
2019-04-11T02:26:09.926Z,4.13
2019-04-11T02:28:42.359Z,4.30
2019-04-11T02:31:13.888Z,4.60
2019-04-11T02:33:46.856Z,3.90
2019-04-11T02:36:20.722Z,3.73
2019-04-11T02:38:59.065Z,4.30
2019-04-11T02:41:29.948Z,4.13
2019-04-11T02:44:01.497Z,4.27
2019-04-11T02:46:42.566Z,4.10
2019-04-11T02:49:10.296Z,3.97
2019-04-11T02:51:44.866Z,4.57
2019-04-11T02:54:16.030Z,4.40
2019-04-11T02:56:50.434Z,4.60
2019-04-11T02:59:25.218Z,4.10
2019-04-11T03:01:58.033Z,4.47
2019-04-11T03:04:30.978Z,4.90
2019-04-11T03:07:03.926Z,4.37
2019-04-11T03:09:35.320Z,4.43
2019-04-11T03:12:07.436Z,3.90
2019-04-11T03:15:01.086Z,4.70
2019-04-11T03:17:19.652Z,4.17
2019-04-11T03:19:59.598Z,4.37
2019-04-11T03:22:20.264Z,4.70
2019-04-11T03:24:53.439Z,4.10
2019-04-11T03:27:28.155Z,4.27
2019-04-11T03:30:00.209Z,4.50
2019-04-11T03:33:17.026Z,4.63
2019-04-11T03:36:07.010Z,4.93
2019-04-11T03:38:12.427Z,4.17
2019-04-11T03:40:45.896Z,4.67
2019-04-11T03:43:11.773Z,5.20
2019-04-11T03:45:48.009Z,5.13
2019-04-11T03:48:20.419Z,4.33
2019-04-11T03:50:39.316Z,4.70
2019-04-11T03:53:11.638Z,4.43
2019-04-11T03:55:43.363Z,5.07
2019-04-11T03:58:15.499Z,5.03
2019-04-11T04:00:50.545Z,4.90
2019-04-11T04:03:20.343Z,5.30
2019-04-11T04:05:55.278Z,5.30
2019-04-11T04:08:29.700Z,4.70
2019-04-11T04:11:08.666Z,5.27
2019-04-11T04:13:45.518Z,4.93
2019-04-11T04:16:44.418Z,5.60
2019-04-11T04:19:35.109Z,5.77
2019-04-11T04:22:11.329Z,5.60
2019-04-11T04:24:46.855Z,5.43
2019-04-11T04:27:19.972Z,5.30
2019-04-11T04:29:55.846Z,5.13
2019-04-11T04:32:25.140Z,5.70
2019-04-11T04:34:56.429Z,5.80
2019-04-11T04:37:29.594Z,5.07
2019-04-11T04:40:19.004Z,5.63
2019-04-11T04:42:42.261Z,5.67
2019-04-11T04:45:10.176Z,5.73
2019-04-11T04:47:47.740Z,5.43
2019-04-11T04:50:15.463Z,6.10
2019-04-11T04:52:46.810Z,5.70
2019-04-11T04:55:19.290Z,5.40
2019-04-11T04:57:51.168Z,6.07
2019-04-11T05:00:23.392Z,5.33
2019-04-11T05:02:55.044Z,6.20
2019-04-11T05:05:35.651Z,6.10
2019-04-11T05:08:08.182Z,6.03
2019-04-11T05:10:40.338Z,6.27
2019-04-11T05:13:12.986Z,6.67
2019-04-11T05:15:46.496Z,5.90
2019-04-11T05:18:20.200Z,6.00
2019-04-11T05:20:50.758Z,6.37
2019-04-11T05:23:22.039Z,6.60
2019-04-11T05:25:53.111Z,6.83
2019-04-11T05:28:25.475Z,7.00
2019-04-11T05:30:56.349Z,6.43
2019-04-11T05:33:27.734Z,6.60
2019-04-11T05:35:58.644Z,6.67
2019-04-11T05:38:29.478Z,6.87
2019-04-11T05:41:00.160Z,6.60
2019-04-11T05:43:36.618Z,6.73
2019-04-11T05:46:21.941Z,7.33
2019-04-11T05:48:47.146Z,6.97
2019-04-11T05:51:21.256Z,8.47
2019-04-11T05:53:54.179Z,6.50
2019-04-11T05:56:29.825Z,7.30
2019-04-11T05:59:10.219Z,7.10
2019-04-11T06:01:45.144Z,6.50
2019-04-11T06:04:30.178Z,7.57
2019-04-11T06:07:32.760Z,7.00
2019-04-11T06:10:11.192Z,6.80
2019-04-11T06:12:56.814Z,7.17
2019-04-11T06:15:31.668Z,7.03
2019-04-11T06:18:05.368Z,7.17
2019-04-11T06:20:47.250Z,6.90
2019-04-11T06:23:41.453Z,6.80
2019-04-11T06:26:47.502Z,6.63
2019-04-11T06:29:26.840Z,6.90
2019-04-11T06:32:15.922Z,7.47
2019-04-11T06:34:52.317Z,6.43
2019-04-11T06:37:58.292Z,6.87
2019-04-11T06:40:35.154Z,6.93
2019-04-11T06:43:34.174Z,6.83
2019-04-11T06:46:33.375Z,6.73
2019-04-11T06:49:28.944Z,6.90
2019-04-11T06:52:02.208Z,7.47
2019-04-11T06:54:41.370Z,6.97
2019-04-11T06:57:16.431Z,6.30
2019-04-11T06:59:48.411Z,6.73
2019-04-11T07:02:21.392Z,6.77
2019-04-11T07:04:53.993Z,6.23
2019-04-11T07:07:28.723Z,7.27
2019-04-11T07:10:04.085Z,6.47
2019-04-11T07:13:00.686Z,5.80
2019-04-11T07:15:39.808Z,6.90
2019-04-11T07:18:29.076Z,6.27
2019-04-11T07:21:06.219Z,5.77
2019-04-11T07:23:55.564Z,6.40
2019-04-11T07:26:45.843Z,6.63
2019-04-11T07:29:50.788Z,6.40
2019-04-11T07:32:25.718Z,6.90
2019-04-11T07:35:22.581Z,7.13
2019-04-11T07:37:58.259Z,5.20
2019-04-11T07:40:58.989Z,4.67
2019-04-11T07:43:33.530Z,7.10
2019-04-11T07:46:25.201Z,6.63
2019-04-11T07:49:06.394Z,6.50
2019-04-11T07:51:48.724Z,7.23
2019-04-11T07:54:25.770Z,6.50
2019-04-11T07:57:17.548Z,6.63
2019-04-11T08:00:19.371Z,5.90
2019-04-11T08:03:14.460Z,6.63
2019-04-11T08:06:22.393Z,5.90
2019-04-11T08:09:13.194Z,6.13
2019-04-11T08:11:52.931Z,5.93
2019-04-11T08:14:43.186Z,5.67
2019-04-11T08:17:42.367Z,5.90
2019-04-11T08:20:29.095Z,5.50
2019-04-11T08:23:03.515Z,4.70
2019-04-11T08:26:01.890Z,5.90
2019-04-11T08:28:34.049Z,5.37
2019-04-11T08:31:28.761Z,5.30
2019-04-11T08:34:02.897Z,5.27
2019-04-11T08:37:01.620Z,5.30
2019-04-11T08:39:37.403Z,5.10
2019-04-11T08:42:33.718Z,5.23
2019-04-11T08:45:06.584Z,5.00
2019-04-11T08:47:47.623Z,5.37
2019-04-11T08:50:20.668Z,4.60
2019-04-11T08:53:08.766Z,5.60
2019-04-11T08:55:55.692Z,4.40
2019-04-11T08:58:40.680Z,4.57
2019-04-11T09:01:13.778Z,4.50
2019-04-11T09:04:10.005Z,4.90
2019-04-11T09:06:40.971Z,4.00
2019-04-11T09:09:31.404Z,4.70
2019-04-11T09:12:04.495Z,4.80
2019-04-11T09:15:00.294Z,4.60
2019-04-11T09:17:38.675Z,4.20
2019-04-11T09:20:38.206Z,4.70
2019-04-11T09:23:14.371Z,4.67
2019-04-11T09:26:20.190Z,4.70
2019-04-11T09:28:53.704Z,4.50
2019-04-11T09:31:43.882Z,4.53
2019-04-11T09:34:41.897Z,4.20
2019-04-11T09:37:25.726Z,4.57
2019-04-11T09:40:19.507Z,4.20
2019-04-11T09:43:07.833Z,5.00
2019-04-11T09:45:57.727Z,5.27
2019-04-11T09:48:46.358Z,4.00
2019-04-11T09:51:40.109Z,4.97
2019-04-11T09:54:42.483Z,5.20
2019-04-11T09:57:24.746Z,3.23
2019-04-11T10:00:27.096Z,2.47
2019-04-11T10:03:19.667Z,3.87
2019-04-11T10:06:36.610Z,3.43
2019-04-11T10:09:17.290Z,4.60
2019-04-11T10:12:40.303Z,4.10
2019-04-11T10:15:13.434Z,4.83
2019-04-11T10:18:03.188Z,4.43
2019-04-11T10:20:34.964Z,5.13
2019-04-11T10:23:29.220Z,4.60
2019-04-11T10:26:03.546Z,5.00
2019-04-11T10:29:00.667Z,4.37
2019-04-11T10:31:34.618Z,4.97
2019-04-11T10:34:15.669Z,4.90
2019-04-11T10:36:55.996Z,4.27
2019-04-11T10:39:43.800Z,2.60
2019-04-11T10:42:15.447Z,3.70
2019-04-11T10:45:05.103Z,5.50
2019-04-11T10:47:36.743Z,2.80
2019-04-11T10:50:26.710Z,4.10
2019-04-11T10:53:00.634Z,4.70
2019-04-11T10:55:47.098Z,4.83
2019-04-11T10:58:21.183Z,5.10
2019-04-11T11:01:09.540Z,4.40
2019-04-11T11:03:55.800Z,5.10
2019-04-11T11:06:29.588Z,4.33
2019-04-11T11:09:22.289Z,4.60
2019-04-11T11:12:12.650Z,4.53
2019-04-11T11:15:03.074Z,4.83
2019-04-11T11:18:29.623Z,4.50
2019-04-11T11:20:42.998Z,4.50
2019-04-11T11:23:20.458Z,5.03
2019-04-11T11:26:03.112Z,4.87
2019-04-11T11:28:36.663Z,4.77
2019-04-11T11:31:27.910Z,5.00
2019-04-11T11:34:00.764Z,4.67
2019-04-11T11:36:55.047Z,4.67
2019-04-11T11:39:49.117Z,4.80
2019-04-11T11:42:50.863Z,4.47
2019-04-11T11:45:49.153Z,2.70
2019-04-11T11:48:35.404Z,4.50
2019-04-11T11:51:22.684Z,2.70
2019-04-11T11:54:05.261Z,4.50
2019-04-11T11:56:38.097Z,3.47
2019-04-11T11:59:23.093Z,3.13
2019-04-11T12:01:57.990Z,4.47
2019-04-11T12:04:46.598Z,4.47
2019-04-11T12:07:22.994Z,3.37
2019-04-11T12:10:11.742Z,2.93
2019-04-11T12:13:04.387Z,3.53
2019-04-11T12:15:49.019Z,5.10
2019-04-11T12:18:49.807Z,5.20
2019-04-11T12:21:26.478Z,5.37
2019-04-11T12:24:30.136Z,5.20
2019-04-11T12:27:20.692Z,5.13
2019-04-11T12:30:21.032Z,5.00
2019-04-11T12:32:59.233Z,4.17
2019-04-11T12:35:40.115Z,4.77
2019-04-11T12:38:31.129Z,4.80
2019-04-11T12:41:26.780Z,5.07
2019-04-11T12:44:16.576Z,5.33
2019-04-11T12:47:18.815Z,5.10
2019-04-11T12:50:08.021Z,5.57
2019-04-11T12:52:45.992Z,5.03
2019-04-11T12:55:22.308Z,5.10
2019-04-11T12:58:10.931Z,5.27
2019-04-11T13:00:55.592Z,4.93
2019-04-11T13:03:44.253Z,4.77
2019-04-11T13:06:34.604Z,4.93
2019-04-11T13:09:31.891Z,5.07
2019-04-11T13:12:03.341Z,4.73
2019-04-11T13:14:50.944Z,4.97
2019-04-11T13:17:25.840Z,4.93
2019-04-11T13:20:33.707Z,4.77
2019-04-11T13:23:12.745Z,4.87
2019-04-11T13:26:20.992Z,4.40
2019-04-11T13:28:58.805Z,4.43
2019-04-11T13:31:46.740Z,4.53
2019-04-11T13:34:17.872Z,5.13
2019-04-11T13:37:16.524Z,5.27
2019-04-11T13:39:52.890Z,3.23
2019-04-11T13:42:42.587Z,5.07
2019-04-11T13:45:14.359Z,5.53
2019-04-11T13:48:03.014Z,4.57
2019-04-11T13:50:34.925Z,4.83
2019-04-11T13:53:23.591Z,5.20
2019-04-11T13:55:54.319Z,4.63
2019-04-11T13:59:03.383Z,4.57
2019-04-11T14:01:36.772Z,4.33
2019-04-11T14:04:13.260Z,4.67
2019-04-11T14:06:44.512Z,5.13
2019-04-11T14:09:33.283Z,5.10
2019-04-11T14:12:09.629Z,5.27
2019-04-11T14:14:48.771Z,5.00
2019-04-11T14:17:50.751Z,5.13
2019-04-11T14:20:41.785Z,4.83
2019-04-11T14:23:34.772Z,5.20
2019-04-11T14:26:28.839Z,4.90
2019-04-11T14:29:18.969Z,5.53
2019-04-11T14:31:53.835Z,4.80
2019-04-11T14:34:54.483Z,4.67
2019-04-11T14:37:38.293Z,4.93
2019-04-11T14:40:24.125Z,5.43
2019-04-11T14:43:16.152Z,5.67
2019-04-11T14:46:06.893Z,5.77
2019-04-11T14:48:43.731Z,5.20
2019-04-11T14:51:47.288Z,5.40
2019-04-11T14:54:20.791Z,5.27
2019-04-11T14:57:17.604Z,5.30
2019-04-11T14:59:53.815Z,5.40
2019-04-11T15:02:44.359Z,5.30
2019-04-11T15:05:35.269Z,5.53
2019-04-11T15:08:07.069Z,5.93
2019-04-11T15:10:52.368Z,5.70
2019-04-11T15:13:27.110Z,5.97
2019-04-11T15:16:32.229Z,5.70
2019-04-11T15:19:03.922Z,5.50
2019-04-11T15:22:06.899Z,5.20
2019-04-11T15:24:38.195Z,5.83
2019-04-11T15:27:38.513Z,5.53
2019-04-11T15:30:11.490Z,5.60
2019-04-11T15:33:17.860Z,5.17
2019-04-11T15:35:49.978Z,6.03
2019-04-11T15:38:38.779Z,5.90
2019-04-11T15:41:10.175Z,5.13
2019-04-11T15:43:59.008Z,5.17
2019-04-11T15:46:33.526Z,5.40
2019-04-11T15:49:30.345Z,5.27
2019-04-11T15:52:11.709Z,4.77
2019-04-11T15:55:02.293Z,5.40
2019-04-11T15:57:44.765Z,5.17
2019-04-11T16:00:44.496Z,5.60
2019-04-11T16:03:24.508Z,5.50
2019-04-11T16:06:12.686Z,5.33
2019-04-11T16:08:48.404Z,6.07
2019-04-11T16:11:53.267Z,5.20
2019-04-11T16:14:36.169Z,5.57
2019-04-11T16:17:42.423Z,5.33
2019-04-11T16:20:19.248Z,5.37
2019-04-11T16:23:08.931Z,6.03
2019-04-11T16:25:43.599Z,5.43
2019-04-11T16:28:42.394Z,4.70
2019-04-11T16:31:14.055Z,5.47
2019-04-11T16:34:01.958Z,5.40
2019-04-11T16:36:53.674Z,5.03
2019-04-11T16:39:49.972Z,5.33
2019-04-11T16:42:25.881Z,5.47
2019-04-11T16:45:25.088Z,5.33
2019-04-11T16:48:04.625Z,5.20
2019-04-11T16:50:35.600Z,5.07
2019-04-11T16:53:10.433Z,5.07
2019-04-11T16:55:43.203Z,4.90
2019-04-11T16:58:17.047Z,5.13
2019-04-11T17:00:52.067Z,5.10
2019-04-11T17:03:19.362Z,5.37
2019-04-11T17:06:02.189Z,5.77
2019-04-11T17:08:37.856Z,5.73
2019-04-11T17:11:11.611Z,5.00
2019-04-11T17:13:42.372Z,4.53
2019-04-11T17:16:17.991Z,5.23
2019-04-11T17:18:50.437Z,5.53
2019-04-11T17:21:23.214Z,5.83
2019-04-11T17:23:53.761Z,5.77
2019-04-11T17:26:25.242Z,5.57
2019-04-11T17:28:56.120Z,6.07
2019-04-11T17:31:26.856Z,5.57
2019-04-11T17:34:01.410Z,5.67
2019-04-11T17:36:30.802Z,5.70
2019-04-11T17:39:07.692Z,5.93
2019-04-11T17:41:41.799Z,2.60
2019-04-11T17:44:12.259Z,2.67
2019-04-11T17:46:43.944Z,2.50
2019-04-11T17:49:14.660Z,5.73
2019-04-11T17:51:55.274Z,6.00
2019-04-11T17:54:18.060Z,6.37
2019-04-11T17:56:49.002Z,6.50
2019-04-11T17:59:19.750Z,6.90
2019-04-11T18:01:50.444Z,6.47
2019-04-11T18:04:21.157Z,6.83
2019-04-11T18:06:51.914Z,6.47
2019-04-11T18:09:25.689Z,6.37
2019-04-11T18:11:56.229Z,6.03
2019-04-11T18:14:31.005Z,6.63
2019-04-11T18:17:03.859Z,6.27
2019-04-11T18:19:33.884Z,6.13
2019-04-11T18:22:08.015Z,6.40
2019-04-11T18:24:39.349Z,6.90
2019-04-11T18:27:10.004Z,7.33
2019-04-11T18:29:40.898Z,6.27
2019-04-11T18:32:11.646Z,6.37
2019-04-11T18:34:42.673Z,5.43
2019-04-11T18:37:13.408Z,6.13
2019-04-11T18:39:45.460Z,6.40
2019-04-11T18:42:16.137Z,5.80
2019-04-11T18:44:47.010Z,5.83
2019-04-11T18:47:17.979Z,6.37
2019-04-11T18:49:50.937Z,5.53
2019-04-11T18:52:24.912Z,6.57
2019-04-11T18:54:53.698Z,6.13
2019-04-11T18:57:25.906Z,6.10
2019-04-11T18:59:58.004Z,5.90
2019-04-11T19:02:28.689Z,5.80
2019-04-11T19:05:02.055Z,5.90
2019-04-11T19:07:31.862Z,5.93
2019-04-11T19:10:02.613Z,5.70
2019-04-11T19:12:34.928Z,6.00
2019-04-11T19:15:06.862Z,6.23
2019-04-11T19:17:37.616Z,5.63
2019-04-11T19:20:09.173Z,5.70
2019-04-11T19:22:39.849Z,5.00
2019-04-11T19:25:12.084Z,5.43
2019-04-11T19:27:43.059Z,6.27
2019-04-11T19:30:14.020Z,6.40
2019-04-11T19:32:44.734Z,5.77
2019-04-11T19:35:15.380Z,6.30
2019-04-11T19:37:46.037Z,6.87
2019-04-11T19:40:17.312Z,6.20
2019-04-11T19:42:49.229Z,7.40
2019-04-11T19:45:20.515Z,6.30
2019-04-11T19:47:52.285Z,6.73
2019-04-11T19:50:23.625Z,6.40
2019-04-11T19:52:54.435Z,6.87
2019-04-11T19:55:39.113Z,6.27
2019-04-11T19:58:20.400Z,6.70
2019-04-11T20:00:53.905Z,6.97
2019-04-11T20:03:24.735Z,7.17
2019-04-11T20:05:58.211Z,6.93
2019-04-11T20:08:29.289Z,6.63
2019-04-11T20:11:01.355Z,6.63
2019-04-11T20:13:32.870Z,6.50
2019-04-11T20:16:03.895Z,6.50
2019-04-11T20:18:34.557Z,6.30
2019-04-11T20:21:07.560Z,6.33
2019-04-11T20:23:41.424Z,6.90
2019-04-11T20:26:12.842Z,6.50
2019-04-11T20:28:43.834Z,7.30
2019-04-11T20:31:14.606Z,6.00
2019-04-11T20:33:45.453Z,5.90
2019-04-11T20:36:16.141Z,6.53
2019-04-11T20:38:46.864Z,6.57
2019-04-11T20:41:17.785Z,6.20
2019-04-11T20:43:48.615Z,6.80
2019-04-11T20:46:19.430Z,5.90
2019-04-11T20:48:50.070Z,6.00
2019-04-11T20:51:21.577Z,6.30
2019-04-11T20:53:52.380Z,6.60
2019-04-11T20:56:25.367Z,6.00
2019-04-11T20:58:56.204Z,6.60
2019-04-11T21:01:27.811Z,6.70
2019-04-11T21:04:00.333Z,5.87
2019-04-11T21:06:37.798Z,6.77
2019-04-11T21:09:12.599Z,6.27
2019-04-11T21:11:43.391Z,6.17
2019-04-11T21:14:14.717Z,6.50
2019-04-11T21:16:45.359Z,5.60
2019-04-11T21:19:16.067Z,6.43
2019-04-11T21:21:47.966Z,6.23
2019-04-11T21:24:18.819Z,6.00
2019-04-11T21:26:49.580Z,6.57
2019-04-11T21:29:20.324Z,6.57
2019-04-11T21:31:51.085Z,6.20
2019-04-11T21:34:21.863Z,6.03
2019-04-11T21:36:52.859Z,6.40
2019-04-11T21:39:23.694Z,5.83
2019-04-11T21:41:57.891Z,5.97
2019-04-11T21:44:28.584Z,6.10
2019-04-11T21:47:00.982Z,6.10
2019-04-11T21:49:36.671Z,5.60
2019-04-11T21:52:05.725Z,6.33
2019-04-11T21:54:36.500Z,6.40
2019-04-11T21:57:08.107Z,6.63
2019-04-11T21:59:38.798Z,6.40
2019-04-11T22:02:11.901Z,5.80
2019-04-11T22:04:42.639Z,5.87
2019-04-11T22:07:13.288Z,6.23
2019-04-11T22:09:43.949Z,6.50
2019-04-11T22:12:14.662Z,6.20
2019-04-11T22:14:49.395Z,5.97
2019-04-11T22:17:21.120Z,6.13
2019-04-11T22:19:54.644Z,6.10
2019-04-11T22:22:25.486Z,5.23
2019-04-11T22:24:56.232Z,5.67
2019-04-11T22:27:27.278Z,5.90
2019-04-11T22:29:58.010Z,6.40
2019-04-11T22:32:28.933Z,5.53
2019-04-11T22:35:01.510Z,5.93
2019-04-11T22:37:32.247Z,5.50
2019-04-11T22:40:04.884Z,5.73
2019-04-11T22:42:35.650Z,5.30
2019-04-11T22:45:08.516Z,5.40
2019-04-11T22:47:39.903Z,5.63
2019-04-11T22:50:10.827Z,5.37
2019-04-11T22:52:42.231Z,5.43
2019-04-11T22:55:13.486Z,6.10
2019-04-11T22:57:44.545Z,5.20
2019-04-11T23:00:15.942Z,6.33
2019-04-11T23:03:04.572Z,5.97
2019-04-11T23:05:35.432Z,5.87
2019-04-11T23:08:08.077Z,6.83
2019-04-11T23:10:41.616Z,6.03
2019-04-11T23:13:15.473Z,5.77
2019-04-11T23:15:45.069Z,5.90
2019-04-11T23:18:16.139Z,5.67
2019-04-11T23:20:49.102Z,6.23
2019-04-11T23:23:20.196Z,5.37
2019-04-11T23:25:50.964Z,5.40
2019-04-11T23:28:21.823Z,5.43
2019-04-11T23:30:54.448Z,5.67
2019-04-11T23:33:25.265Z,6.00
2019-04-11T23:35:56.547Z,5.93
2019-04-11T23:38:27.178Z,6.03
2019-04-11T23:40:57.944Z,6.67
2019-04-11T23:43:28.696Z,6.60
2019-04-11T23:45:59.554Z,6.40
2019-04-11T23:48:30.747Z,5.87
2019-04-11T23:51:02.608Z,5.97
2019-04-11T23:53:33.713Z,6.10
2019-04-11T23:56:04.485Z,6.50
2019-04-11T23:58:35.200Z,5.93
